Accueil
METAR-TAF:

METAR-TAF

Aéroports :

Aéroport de Pago Pago

Pago Pago, Îles mineures éloignées des États-Unis

latitude: 14-20S, longitude: 170-43W, altitude: 3 m

Observation

Le bulletin a été fait il y a 34 minutes, à 08:50 UTC
Vent 2 kt de direction variable
Température 28°C
Humidité 84%
Pression 1007 hPa
Visibilité: 19.3 km
Quelques nuages à une hauteur de 1900 ft
Nuages épars à une hauteur de 23000 ft

METAR: NSTU 210850Z VRB02KT 12SM FEW019 SCT230 28/25 A2975 RMK SLP076 8/101 T02770253 53019

Heure: 22:24 (09:24 UTC)

Prévision

Le bulletin a été fait il y a 4 heures et 4 minutes, à 05:20 UTC
Prévision valable du 21 à 06 UTC au 22 à 06 UTC
Vent 6 kt de ouest/sud-ouest
Visibilité: 10 km
Nuages épars à une hauteur de 2000 ft
Nuages épars à une hauteur de 4000 ft
Nuages fragmentés à une hauteur de 20000 ft
averses à proximité

TAF: NSTU 210520Z 2106/2206 24006KT P6SM VCSH SCT020 SCT040 BKN200

Observations et prévisions météorologiques de plus de 4000 aéroports (messages METAR et TAF).

Les stations disponibles sont représentées par des disques jaunes et rouges sur la carte.

Passer la souris dessus pour voir le nom de la station.

Cliquer dessus pour voir les observations et prévisions météorologiques.

Pour changer de carte: cliquez sur les boutons verts avec une croix noire pour zoomer, sur le bouton vert avec un tiret pour effectuer un zoom arrière, ou sur les flèches vertes pour les cartes adjacentes.


METAR-TAF: